Latest Weather Observations for Hughenden

IDQ60801

Issued at 1:32 pm EST Saturday 5 September 2015 (issued every 30 minutes, with the page automatically refreshed every 10 minutes)

About weather observations | Map of weather stations | Latest weather observations for QLD | Other Formats
Station Details ID: 030022 Name: HUGHENDEN AIRPORT Lat: -20.82 Lon: 144.23 Height: 316.4 m
Data from the previous 72 hours. | See also: Recent months at Hughenden
Date/Time
EST
Temp
°C
App
Temp
°C
Dew
Point
Rel
Hum
%
Delta-T
°C
Wind Press
QNH
hPa
Press
MSL
hPa
Rain
since 9 am
mm
Dir
 
Spd
km/h
Gust
km/h
Spd
kts
Gust
kts
05/01:30pm 26.5 22.3 -4.1 13 13.4 N 9 15 5 8 1017.4 1015.8 0.0
05/01:00pm 26.1 22.3 -3.5 14 13.1 E 7 13 4 7 1017.8 1016.2 0.0
05/12:30pm 26.5 21.7 -2.2 15 13.0 S 13 28 7 15 1018.5 1017.0 0.0
05/12:00pm 25.2 21.5 -3.2 15 12.5 W 7 13 4 7 1019.1 1017.6 0.0
05/11:30am 24.6 20.6 -2.0 17 11.9 S 9 20 5 11 1019.8 1018.3 0.0
05/11:00am 24.2 20.2 -2.4 17 11.8 SSE 9 19 5 10 1020.3 1018.7 0.0
05/10:30am 23.6 18.9 -2.1 18 11.4 SSE 13 20 7 11 1020.8 1019.2 0.0
05/10:00am 21.9 18.0 -1.4 21 10.3 SE 9 17 5 9 1021.1 1019.6 0.0
05/09:30am 21.2 17.8 -0.7 23 9.8 SE 7 11 4 6 1021.4 1019.9 0.0
05/09:00am 19.6 16.6 -1.5 24 9.1 ESE 4 7 2 4 1021.2 1019.7 -
05/08:30am 16.7 14.4 -2.4 27 7.9 CALM 0 0 0 0 1021.0 1019.5 -
05/08:00am 13.8 11.4 -3.0 31 6.7 CALM 0 0 0 0 1020.8 1019.2 -
05/07:30am 11.0 7.8 -3.8 35 5.6 S 4 7 2 4 1020.5 1018.9 -
05/07:00am 8.1 4.3 -4.0 42 4.4 S 7 11 4 6 1020.1 1018.5 -
05/06:30am 7.8 3.8 -6.0 37 4.8 ENE 7 9 4 5 1019.6 1018.1 -
05/06:00am 8.0 4.1 -6.9 34 5.0 ENE 6 7 3 4 1019.3 1017.8 -
05/05:30am 8.7 4.6 -6.7 33 5.3 ENE 7 9 4 5 1019.1 1017.6 -
05/05:00am 9.5 5.2 -5.2 35 5.3 NE 9 11 5 6 1019.1 1017.6 -
05/04:30am 9.4 5.4 -6.0 33 5.4 NNE 7 9 4 5 1018.9 1017.4 -
05/04:00am 9.9 6.1 -6.0 32 5.6 N 6 7 3 4 1018.8 1017.3 -
05/03:30am 9.9 6.7 -7.3 29 5.9 N 2 6 1 3 1018.8 1017.3 -
05/03:00am 10.7 8.0 -5.7 31 5.9 CALM 0 0 0 0 1018.7 1017.2 -
05/02:30am 11.3 7.8 -6.1 29 6.3 ESE 4 6 2 3 1018.7 1017.2 -
05/02:00am 12.8 9.0 -5.2 28 6.7 SE 6 7 3 4 1018.9 1017.4 -
05/01:30am 14.1 9.6 -3.6 29 7.0 SE 11 13 6 7 1019.1 1017.6 -
05/01:00am 13.5 9.6 -4.6 28 6.9 SE 7 9 4 5 1019.4 1017.9 -
05/12:30am 14.5 10.6 -4.7 26 7.4 SSE 7 9 4 5 1019.6 1018.1 -
05/12:00am 16.3 11.3 -4.3 24 8.2 SSE 13 15 7 8 1019.8 1018.3 -
 
Date/Time
EST
Temp
°C
App
Temp
°C
Dew
Point
Rel
Hum
%
Delta-T
°C
Wind Press
QNH
hPa
Press
MSL
hPa
Rain
since 9 am
mm
Dir
 
Spd
km/h
Gust
km/h
Spd
kts
Gust
kts
04/11:30pm 16.4 11.4 -4.2 24 8.2 SSE 13 17 7 9 1019.9 1018.4 -
04/11:00pm 16.8 11.8 -4.4 23 8.4 SSE 13 17 7 9 1020.1 1018.5 -
04/10:30pm 16.5 11.5 -4.7 23 8.4 SSE 13 15 7 8 1020.1 1018.5 0.0
04/10:00pm 16.6 11.9 -5.2 22 8.5 SSE 11 13 6 7 1019.7 1018.2 0.0
04/09:30pm 18.2 13.1 -5.1 20 9.3 S 13 15 7 8 1019.5 1018.0 0.0
04/09:00pm 19.1 14.4 -5.0 19 9.7 S 11 15 6 8 1019.3 1017.8 0.0
04/08:30pm 20.6 15.1 -5.3 17 10.5 S 15 19 8 10 1019.0 1017.5 0.0
04/08:00pm 21.0 15.5 -5.0 17 10.6 SSW 15 19 8 10 1018.8 1017.3 0.0
04/07:30pm 21.1 16.0 -4.9 17 10.7 SSW 13 15 7 8 1018.5 1017.0 0.0
04/07:00pm 21.7 17.0 -5.2 16 11.0 SSW 11 13 6 7 1018.2 1016.7 0.0
04/06:30pm 23.3 18.5 -5.7 14 12.0 SSW 11 13 6 7 1018.0 1016.4 0.0
04/06:00pm 24.9 20.2 -5.4 13 12.8 SSW 11 15 6 8 1017.6 1016.0 0.0
04/05:30pm 26.5 21.7 -6.3 11 13.8 SW 11 13 6 7 1017.4 1015.8 0.0
04/05:00pm 26.8 21.7 -4.9 12 13.7 SW 13 20 7 11 1017.1 1015.5 0.0
04/04:30pm 27.0 22.3 -4.8 12 13.8 SSW 11 20 6 11 1016.9 1015.3 0.0
04/04:00pm 27.6 22.9 -5.5 11 14.3 SW 11 20 6 11 1016.6 1015.1 0.0
04/03:30pm 27.2 22.0 -5.8 11 14.1 W 13 20 7 11 1016.8 1015.2 0.0
04/03:00pm 27.1 22.3 -5.9 11 14.1 SW 11 17 6 9 1017.0 1015.4 0.0
04/02:30pm 27.0 22.7 -4.8 12 13.8 S 9 20 5 11 1017.4 1015.8 0.0
04/02:00pm 26.9 21.8 -4.9 12 13.8 SW 13 33 7 18 1017.9 1016.3 0.0
04/01:30pm 25.8 21.2 -3.7 14 13.0 SW 11 15 6 8 1018.4 1016.9 0.0
04/01:00pm 25.6 21.8 -3.8 14 12.8 NW 7 19 4 10 1018.9 1017.4 0.0
04/12:30pm 24.7 19.7 -4.6 14 12.5 SSE 13 20 7 11 1019.6 1018.1 0.0
04/12:00pm 24.7 20.6 -2.8 16 12.1 SW 9 17 5 9 1020.3 1018.7 0.0
04/11:30am 23.6 18.7 -3.7 16 11.8 SSW 13 20 7 11 1020.8 1019.2 0.0
04/11:00am 23.3 18.9 -2.3 18 11.3 SSE 11 17 6 9 1021.4 1019.9 0.0
04/10:30am 22.7 18.4 -1.4 20 10.8 S 11 20 6 11 1021.6 1020.1 0.0
04/10:00am 21.9 17.0 -0.8 22 10.2 ESE 15 24 8 13 1021.9 1020.4 0.0
04/09:30am 21.6 15.9 -0.4 23 9.9 ESE 19 24 10 13 1022.1 1020.6 0.0
04/09:00am 20.4 17.0 -0.8 24 9.4 ESE 7 20 4 11 1022.1 1020.6 0.0
04/08:30am 18.0 14.4 -2.3 25 8.5 NNE 7 9 4 5 1022.0 1020.5 0.0
04/08:00am 14.6 12.0 -4.7 26 7.4 CALM 0 0 0 0 1021.9 1020.4 0.0
04/07:30am 10.5 7.5 -9.2 24 6.5 CALM 0 0 0 0 1021.6 1020.1 0.0
04/07:00am 7.6 4.5 -10.6 26 5.6 CALM 0 0 0 0 1021.4 1019.9 0.0
04/06:30am 6.9 3.8 -11.2 26 5.4 CALM 0 0 0 0 1021.0 1019.5 0.0
04/06:00am 7.2 3.0 -9.6 29 5.3 N 6 7 3 4 1020.5 1018.9 0.0
04/05:30am 7.8 4.8 -9.5 28 5.5 CALM 0 0 0 0 1020.2 1018.6 0.0
04/05:00am 7.6 3.4 -10.2 27 5.5 SE 6 7 3 4 1019.8 1018.3 0.0
04/04:30am 7.8 3.5 -9.1 29 5.4 E 7 9 4 5 1019.6 1018.1 0.0
04/04:00am 7.8 4.0 -10.0 27 5.6 ENE 4 7 2 4 1019.6 1018.1 0.0
04/03:30am 8.4 5.3 -10.5 25 5.9 CALM 0 0 0 0 1019.7 1018.2 0.0
04/03:00am 8.5 5.4 -10.9 24 6.0 CALM 0 0 0 0 1019.6 1018.1 0.0
04/02:30am 9.0 6.0 -9.4 26 6.0 CALM 0 0 0 0 1019.5 1018.0 0.0
04/02:00am 8.8 5.7 -10.1 25 6.0 CALM 0 0 0 0 1019.6 1018.1 0.0
04/01:30am 9.2 6.1 -10.3 24 6.2 CALM 0 0 0 0 1019.6 1018.1 0.0
04/01:00am 10.1 5.7 -10.1 23 6.5 ESE 7 9 4 5 1019.7 1018.2 0.0
04/12:30am 10.9 6.6 -9.4 23 6.7 ESE 7 9 4 5 1019.8 1018.3 0.0
04/12:00am 11.6 8.6 -9.4 22 7.0 CALM 0 2 0 1 1019.9 1018.4 0.0
 
Date/Time
EST
Temp
°C
App
Temp
°C
Dew
Point
Rel
Hum
%
Delta-T
°C
Wind Press
QNH
hPa
Press
MSL
hPa
Rain
since 9 am
mm
Dir
 
Spd
km/h
Gust
km/h
Spd
kts
Gust
kts
03/11:30pm 12.4 7.4 -8.1 23 7.2 SE 11 13 6 7 1020.2 1018.6 0.0
03/11:00pm 12.5 7.9 -8.0 23 7.2 SSE 9 9 5 5 1020.2 1018.6 0.0
03/10:30pm 12.5 7.8 -9.8 20 7.5 SSE 9 11 5 6 1020.3 1018.7 0.0
03/10:00pm 13.9 9.2 -8.7 20 7.9 S 9 9 5 5 1020.3 1018.7 0.0
03/09:30pm 14.6 10.3 -8.7 19 8.3 SSE 7 9 4 5 1020.4 1018.8 0.0
03/09:00pm 15.7 11.3 -10.0 16 8.9 SSE 7 9 4 5 1020.1 1018.5 0.0
03/08:30pm 16.9 12.2 -9.0 16 9.4 S 9 11 5 6 1019.7 1018.2 0.0
03/08:00pm 19.5 14.5 -8.7 14 10.5 SSW 11 13 6 7 1019.5 1018.0 0.0
03/07:30pm 20.5 15.5 -7.9 14 10.9 SSW 11 11 6 6 1019.2 1017.7 0.0
03/07:00pm 22.4 17.9 -7.3 13 11.8 SSW 9 11 5 6 1019.0 1017.5 0.0
03/06:30pm 23.8 18.5 -7.3 12 12.5 SW 13 19 7 10 1018.7 1017.2 0.0
03/06:00pm 25.7 19.7 -6.9 11 13.5 SW 17 22 9 12 1018.6 1017.1 0.0
03/05:30pm 26.6 20.3 -6.2 11 13.9 SW 19 26 10 14 1018.3 1016.8 0.0
03/05:00pm 27.2 20.6 -7.0 10 14.3 SW 20 28 11 15 1018.3 1016.8 0.0
03/04:30pm 27.5 20.5 -6.8 10 14.5 SW 22 30 12 16 1018.2 1016.7 0.0
03/04:00pm 27.7 21.3 -6.6 10 14.5 SSW 19 26 10 14 1018.2 1016.7 0.0
03/03:30pm 28.1 21.8 -6.3 10 14.7 WSW 19 24 10 13 1018.1 1016.6 0.0
03/03:00pm 27.5 21.9 -6.8 10 14.4 S 15 26 8 14 1018.1 1016.6 0.0
03/02:30pm 27.9 22.3 -6.5 10 14.6 W 15 26 8 14 1018.4 1016.9 0.0
03/02:00pm 27.1 20.7 -7.1 10 14.3 SSW 19 28 10 15 1018.8 1017.3 0.0
03/01:30pm 26.3 20.2 -7.7 10 13.9 SSW 17 26 9 14 1019.2 1017.7 0.0
03/01:00pm 25.6 19.8 -8.2 10 13.6 S 15 24 8 13 1019.4 1017.9 0.0
03/12:30pm 24.9 19.2 -7.5 11 13.2 SSW 15 24 8 13 1020.1 1018.5 0.0
03/12:00pm 24.8 19.9 -7.6 11 13.1 SSE 11 19 6 10 1020.6 1019.0 0.0
03/11:30am 23.8 18.1 -7.3 12 12.5 S 15 20 8 11 1021.4 1019.9 0.0
03/11:00am 22.9 17.5 -8.0 12 12.1 S 13 20 7 11 1021.9 1020.4 0.0
03/10:30am 22.7 17.0 -7.1 13 11.9 SSE 15 26 8 14 1022.2 1020.7 0.0
03/10:00am 21.5 14.8 -8.0 13 11.4 S 20 26 11 14 1022.6 1021.1 0.0
03/09:30am 20.9 14.7 -8.5 13 11.2 S 17 24 9 13 1022.7 1021.2 0.0
03/09:00am 20.3 13.6 -8.0 14 10.8 S 20 32 11 17 1022.5 1021.0 0.0
03/08:30am 19.3 12.7 -7.1 16 10.2 S 20 26 11 14 1022.3 1020.8 0.0
03/08:00am 18.5 12.7 -4.2 21 9.2 S 17 24 9 13 1022.1 1020.6 0.0
03/07:30am 16.8 13.2 -1.8 28 7.8 SSE 7 11 4 6 1021.6 1020.1 0.0
03/07:00am 13.6 9.7 -1.6 35 6.2 SSE 9 9 5 5 1021.2 1019.7 0.0
03/06:30am 14.2 10.7 -1.0 35 6.3 S 7 7 4 4 1020.7 1019.1 0.0
03/06:00am 14.0 10.2 -0.4 37 6.1 S 9 11 5 6 1020.4 1018.8 0.0
03/05:30am 13.7 10.3 -0.7 37 6.0 S 7 7 4 4 1019.7 1018.2 0.0
03/05:00am 14.0 11.8 -1.6 34 6.4 CALM 0 0 0 0 1019.1 1017.6 0.0
03/04:30am 14.9 12.3 -1.6 32 6.8 WNW 2 7 1 4 1018.6 1017.1 0.0
03/04:00am 15.9 13.8 -0.8 32 7.1 CALM 0 0 0 0 1018.3 1016.8 0.0
03/03:30am 17.0 15.0 0.2 32 7.4 CALM 0 6 0 3 1018.0 1016.4 0.0
03/03:00am 18.2 14.9 0.4 30 7.9 WNW 7 9 4 5 1017.7 1016.1 0.0
03/02:30am 18.5 15.3 -0.3 28 8.3 WNW 6 9 3 5 1017.5 1015.9 0.0
03/02:00am 20.6 16.4 1.5 28 8.9 SW 13 15 7 8 1017.3 1015.7 0.0
03/01:30am 21.3 16.6 1.0 26 9.4 SW 15 24 8 13 1017.0 1015.4 0.0
03/01:00am 21.6 17.3 1.3 26 9.5 SW 13 17 7 9 1016.9 1015.3 0.0
03/12:30am 21.9 17.6 1.0 25 9.7 SSW 13 20 7 11 1016.8 1015.2 0.0
03/12:00am 22.7 17.9 0.5 23 10.3 SSW 15 20 8 11 1016.5 1015.0 0.0
 
Date/Time
EST
Temp
°C
App
Temp
°C
Dew
Point
Rel
Hum
%
Delta-T
°C
Wind Press
QNH
hPa
Press
MSL
hPa
Rain
since 9 am
mm
Dir
 
Spd
km/h
Gust
km/h
Spd
kts
Gust
kts
02/11:30pm 23.6 17.2 0.7 22 10.7 SSW 24 30 13 16 1016.3 1014.8 0.0
02/11:00pm 24.6 17.3 0.2 20 11.4 SSW 28 39 15 21 1015.9 1014.4 0.0
02/10:30pm 20.1 18.0 -1.1 24 9.3 CALM 0 0 0 0 1014.9 1013.3 0.0
02/10:00pm 20.4 18.1 -2.0 22 9.7 CALM 0 0 0 0 1014.9 1013.3 0.0
02/09:30pm 22.0 18.7 -1.3 21 10.4 W 6 6 3 3 1014.6 1013.0 0.0
02/09:00pm 23.5 20.1 -2.2 18 11.4 W 6 7 3 4 1014.4 1012.8 0.0
02/08:30pm 24.7 21.2 -1.2 18 11.8 W 7 7 4 4 1014.3 1012.7 0.0
02/08:00pm 26.9 23.2 -0.2 17 12.8 W 9 11 5 6 1014.0 1012.4 0.0
02/07:30pm 27.4 23.1 -1.5 15 13.4 W 11 13 6 7 1013.6 1012.0 0.0
02/07:00pm 28.5 24.2 -1.6 14 14.0 W 11 15 6 8 1013.2 1011.7 0.0
02/06:30pm 30.0 25.4 -1.4 13 14.9 WNW 13 17 7 9 1012.8 1011.3 0.0
02/06:00pm 32.3 26.8 -1.9 11 16.3 W 17 20 9 11 1012.6 1011.1 0.0
02/05:30pm 33.5 27.2 -1.0 11 16.8 WNW 22 30 12 16 1012.4 1010.8 0.0
02/05:00pm 34.4 29.0 -1.6 10 17.5 WNW 17 24 9 13 1012.2 1010.6 0.0
02/04:30pm 34.5 28.1 -1.5 10 17.5 WNW 22 30 12 16 1012.0 1010.4 0.0
02/04:00pm 35.2 29.3 -1.0 10 17.9 WNW 20 28 11 15 1011.9 1010.3 0.0
02/03:30pm 35.1 28.4 -1.1 10 17.8 NW 24 37 13 20 1012.0 1010.4 0.0
02/03:00pm 34.8 29.0 -1.3 10 17.7 WNW 19 32 10 17 1012.3 1010.7 0.0
02/02:30pm 34.2 28.5 -0.4 11 17.1 NW 19 33 10 18 1012.6 1011.1 0.0
02/02:00pm 35.6 29.5 0.6 11 17.8 NW 22 35 12 19 1013.2 1011.7 0.0

Other Formats:

Comma delimited format used in spreadsheet applications
http://www.bom.gov.au/fwo/IDQ60801/IDQ60801.94343.axf

JavaScript Object Notation format (JSON) in row-major order
http://www.bom.gov.au/fwo/IDQ60801/IDQ60801.94343.json